Terminal Aerodrome Forecast
Issued by NWS Sterling, VA

Current Version | Previous Version | Graphics & Text | Print | Product List | Glossary On
Versions: 1 2 3 4 5 6 7 8 9 10 11 12 13 14 15 16 17 18 19 20 21 22 23 24
000
FTUS41 KLWX 231512 AAA
TAFIAD
TAF AMD
KIAD 231512Z 2315/2418 19006KT P6SM FEW080
     FM231700 20007KT P6SM SCT050
     FM240000 19006KT P6SM BKN100
     FM240600 19005KT 4SM BR SCT060
     FM241400 18006KT P6SM BKN200=

USA.gov is the U.S. government's official web portal to all federal, state and local government web resources and services.